sensor_id;sensor_type;location;lat;lon;timestamp;temperature;humidity
13694;DHT22;6919;52.344;14.518;2022-09-09T00:00:26;15.00;99.90
13694;DHT22;6919;52.344;14.518;2022-09-09T00:03:02;15.00;99.90
13694;DHT22;6919;52.344;14.518;2022-09-09T00:05:45;14.90;99.90
13694;DHT22;6919;52.344;14.518;2022-09-09T00:08:32;14.80;99.90
13694;DHT22;6919;52.344;14.518;2022-09-09T00:11:12;14.80;99.90
13694;DHT22;6919;52.344;14.518;2022-09-09T00:13:58;14.80;99.90
13694;DHT22;6919;52.344;14.518;2022-09-09T00:16:34;14.80;99.90
13694;DHT22;6919;52.344;14.518;2022-09-09T00:19:08;14.90;99.90
13694;DHT22;6919;52.344;14.518;2022-09-09T00:21:55;14.90;99.90
13694;DHT22;6919;52.344;14.518;2022-09-09T00:24:38;14.90;99.90
13694;DHT22;6919;52.344;14.518;2022-09-09T00:27:19;14.80;99.90
13694;DHT22;6919;52.344;14.518;2022-09-09T00:29:58;14.90;99.90
13694;DHT22;6919;52.344;14.518;2022-09-09T00:32:41;14.80;99.90
13694;DHT22;6919;52.344;14.518;2022-09-09T00:35:17;14.80;99.90
13694;DHT22;6919;52.344;14.518;2022-09-09T00:37:53;14.80;99.90
13694;DHT22;6919;52.344;14.518;2022-09-09T00:40:29;14.80;99.90
13694;DHT22;6919;52.344;14.518;2022-09-09T00:43:26;14.80;99.90
13694;DHT22;6919;52.344;14.518;2022-09-09T00:46:33;14.80;99.90
13694;DHT22;6919;52.344;14.518;2022-09-09T00:49:28;14.80;99.90
13694;DHT22;6919;52.344;14.518;2022-09-09T00:52:14;14.80;99.90
13694;DHT22;6919;52.344;14.518;2022-09-09T00:54:57;14.70;99.90
13694;DHT22;6919;52.344;14.518;2022-09-09T00:57:35;14.80;99.90
13694;DHT22;6919;52.344;14.518;2022-09-09T01:00:20;14.70;99.90
13694;DHT22;6919;52.344;14.518;2022-09-09T01:03:02;14.60;99.90
13694;DHT22;6919;52.344;14.518;2022-09-09T01:05:59;14.60;99.90
13694;DHT22;6919;52.344;14.518;2022-09-09T01:09:00;14.50;99.90
13694;DHT22;6919;52.344;14.518;2022-09-09T01:11:45;14.50;99.90
13694;DHT22;6919;52.344;14.518;2022-09-09T01:14:37;14.50;99.90
13694;DHT22;6919;52.344;14.518;2022-09-09T01:17:14;14.50;99.90
13694;DHT22;6919;52.344;14.518;2022-09-09T01:19:55;14.20;99.90
13694;DHT22;6919;52.344;14.518;2022-09-09T01:22:35;14.30;99.90
13694;DHT22;6919;52.344;14.518;2022-09-09T01:25:30;14.40;99.90
13694;DHT22;6919;52.344;14.518;2022-09-09T01:28:35;14.30;99.90
13694;DHT22;6919;52.344;14.518;2022-09-09T01:31:06;14.30;99.90
13694;DHT22;6919;52.344;14.518;2022-09-09T01:33:37;14.30;99.90
13694;DHT22;6919;52.344;14.518;2022-09-09T01:36:09;14.30;99.90
13694;DHT22;6919;52.344;14.518;2022-09-09T01:38:41;14.20;99.90
13694;DHT22;6919;52.344;14.518;2022-09-09T01:41:11;14.20;99.90
13694;DHT22;6919;52.344;14.518;2022-09-09T01:43:39;14.10;99.90
13694;DHT22;6919;52.344;14.518;2022-09-09T01:46:08;14.20;99.90
13694;DHT22;6919;52.344;14.518;2022-09-09T01:48:39;14.00;99.90
13694;DHT22;6919;52.344;14.518;2022-09-09T01:51:09;14.00;99.90
13694;DHT22;6919;52.344;14.518;2022-09-09T01:53:39;13.90;99.90
13694;DHT22;6919;52.344;14.518;2022-09-09T01:56:21;14.10;99.90
13694;DHT22;6919;52.344;14.518;2022-09-09T01:59:12;13.90;99.90
13694;DHT22;6919;52.344;14.518;2022-09-09T02:02:03;14.00;99.90
13694;DHT22;6919;52.344;14.518;2022-09-09T02:04:39;13.90;99.90
13694;DHT22;6919;52.344;14.518;2022-09-09T02:07:25;13.90;99.90
13694;DHT22;6919;52.344;14.518;2022-09-09T02:10:09;13.90;99.90
13694;DHT22;6919;52.344;14.518;2022-09-09T02:12:44;13.90;99.90
13694;DHT22;6919;52.344;14.518;2022-09-09T02:15:20;14.00;99.90
13694;DHT22;6919;52.344;14.518;2022-09-09T02:17:57;13.90;99.90
13694;DHT22;6919;52.344;14.518;2022-09-09T02:20:26;13.90;99.90
13694;DHT22;6919;52.344;14.518;2022-09-09T02:23:01;14.00;99.90
13694;DHT22;6919;52.344;14.518;2022-09-09T02:25:30;13.80;99.90
13694;DHT22;6919;52.344;14.518;2022-09-09T02:28:01;13.90;99.90
13694;DHT22;6919;52.344;14.518;2022-09-09T02:30:32;13.80;99.90
13694;DHT22;6919;52.344;14.518;2022-09-09T02:33:05;13.80;99.90
13694;DHT22;6919;52.344;14.518;2022-09-09T02:35:37;13.80;99.90
13694;DHT22;6919;52.344;14.518;2022-09-09T02:38:10;13.80;99.90
13694;DHT22;6919;52.344;14.518;2022-09-09T02:40:43;13.70;99.90
13694;DHT22;6919;52.344;14.518;2022-09-09T02:43:15;13.70;99.90
13694;DHT22;6919;52.344;14.518;2022-09-09T02:45:49;13.70;99.90
13694;DHT22;6919;52.344;14.518;2022-09-09T02:48:29;13.60;99.90
13694;DHT22;6919;52.344;14.518;2022-09-09T02:51:06;13.70;99.90
13694;DHT22;6919;52.344;14.518;2022-09-09T02:53:47;13.70;99.90
13694;DHT22;6919;52.344;14.518;2022-09-09T02:56:40;13.60;99.90
13694;DHT22;6919;52.344;14.518;2022-09-09T02:59:15;13.70;99.90
13694;DHT22;6919;52.344;14.518;2022-09-09T03:01:43;13.60;99.90
13694;DHT22;6919;52.344;14.518;2022-09-09T03:04:11;13.60;99.90
13694;DHT22;6919;52.344;14.518;2022-09-09T03:06:39;13.60;99.90
13694;DHT22;6919;52.344;14.518;2022-09-09T03:09:07;13.60;99.90
13694;DHT22;6919;52.344;14.518;2022-09-09T03:11:37;13.60;99.90
13694;DHT22;6919;52.344;14.518;2022-09-09T03:14:05;13.60;99.90
13694;DHT22;6919;52.344;14.518;2022-09-09T03:16:35;13.70;99.90
13694;DHT22;6919;52.344;14.518;2022-09-09T03:19:03;13.70;99.90
13694;DHT22;6919;52.344;14.518;2022-09-09T03:21:32;13.70;99.90
13694;DHT22;6919;52.344;14.518;2022-09-09T03:24:01;13.70;99.90
13694;DHT22;6919;52.344;14.518;2022-09-09T03:26:30;13.70;99.90
13694;DHT22;6919;52.344;14.518;2022-09-09T03:28:58;13.60;99.90
13694;DHT22;6919;52.344;14.518;2022-09-09T03:31:27;13.60;99.90
13694;DHT22;6919;52.344;14.518;2022-09-09T03:33:58;13.60;99.90
13694;DHT22;6919;52.344;14.518;2022-09-09T03:36:26;13.60;99.90
13694;DHT22;6919;52.344;14.518;2022-09-09T03:38:55;13.60;99.90
13694;DHT22;6919;52.344;14.518;2022-09-09T03:41:23;13.60;99.90
13694;DHT22;6919;52.344;14.518;2022-09-09T03:43:53;13.70;99.90
13694;DHT22;6919;52.344;14.518;2022-09-09T03:46:23;13.70;99.90
13694;DHT22;6919;52.344;14.518;2022-09-09T03:48:52;13.70;99.90
13694;DHT22;6919;52.344;14.518;2022-09-09T03:51:22;13.70;99.90
13694;DHT22;6919;52.344;14.518;2022-09-09T03:53:51;13.70;99.90
13694;DHT22;6919;52.344;14.518;2022-09-09T03:56:24;13.70;99.90
13694;DHT22;6919;52.344;14.518;2022-09-09T03:58:52;13.70;99.90
13694;DHT22;6919;52.344;14.518;2022-09-09T04:01:20;13.60;99.90
13694;DHT22;6919;52.344;14.518;2022-09-09T04:03:49;13.60;99.90
13694;DHT22;6919;52.344;14.518;2022-09-09T04:06:17;13.70;99.90
13694;DHT22;6919;52.344;14.518;2022-09-09T04:08:47;13.60;99.90
13694;DHT22;6919;52.344;14.518;2022-09-09T04:11:16;13.60;99.90
13694;DHT22;6919;52.344;14.518;2022-09-09T04:13:45;13.50;99.90
13694;DHT22;6919;52.344;14.518;2022-09-09T04:16:13;13.50;99.90
13694;DHT22;6919;52.344;14.518;2022-09-09T04:18:41;13.50;99.90
13694;DHT22;6919;52.344;14.518;2022-09-09T04:21:10;13.40;99.90
13694;DHT22;6919;52.344;14.518;2022-09-09T04:23:39;13.40;99.90
13694;DHT22;6919;52.344;14.518;2022-09-09T04:26:08;13.40;99.90
13694;DHT22;6919;52.344;14.518;2022-09-09T04:28:37;13.40;99.90
13694;DHT22;6919;52.344;14.518;2022-09-09T04:31:06;13.40;99.90
13694;DHT22;6919;52.344;14.518;2022-09-09T04:33:36;13.40;99.90
13694;DHT22;6919;52.344;14.518;2022-09-09T04:36:06;13.40;99.90
13694;DHT22;6919;52.344;14.518;2022-09-09T04:38:35;13.50;99.90
13694;DHT22;6919;52.344;14.518;2022-09-09T04:41:05;13.50;99.90
13694;DHT22;6919;52.344;14.518;2022-09-09T04:43:35;13.50;99.90
13694;DHT22;6919;52.344;14.518;2022-09-09T04:46:04;13.50;99.90
13694;DHT22;6919;52.344;14.518;2022-09-09T04:48:33;13.60;99.90
13694;DHT22;6919;52.344;14.518;2022-09-09T04:51:03;13.60;99.90
13694;DHT22;6919;52.344;14.518;2022-09-09T04:53:32;13.60;99.90
13694;DHT22;6919;52.344;14.518;2022-09-09T04:56:02;13.70;99.90
13694;DHT22;6919;52.344;14.518;2022-09-09T04:58:32;13.70;99.90
13694;DHT22;6919;52.344;14.518;2022-09-09T05:01:06;13.80;99.90
13694;DHT22;6919;52.344;14.518;2022-09-09T05:03:35;13.80;99.90
13694;DHT22;6919;52.344;14.518;2022-09-09T05:06:05;13.80;99.90
13694;DHT22;6919;52.344;14.518;2022-09-09T05:08:35;13.80;99.90
13694;DHT22;6919;52.344;14.518;2022-09-09T05:11:11;13.90;99.90
13694;DHT22;6919;52.344;14.518;2022-09-09T05:13:42;13.90;99.90
13694;DHT22;6919;52.344;14.518;2022-09-09T05:16:12;14.00;99.90
13694;DHT22;6919;52.344;14.518;2022-09-09T05:18:41;14.00;99.90
13694;DHT22;6919;52.344;14.518;2022-09-09T05:21:11;14.00;99.90
13694;DHT22;6919;52.344;14.518;2022-09-09T05:23:40;14.00;99.90
13694;DHT22;6919;52.344;14.518;2022-09-09T05:26:12;14.10;99.90
13694;DHT22;6919;52.344;14.518;2022-09-09T05:28:44;14.10;99.90
13694;DHT22;6919;52.344;14.518;2022-09-09T05:31:15;14.20;99.90
13694;DHT22;6919;52.344;14.518;2022-09-09T05:33:46;14.30;99.90
13694;DHT22;6919;52.344;14.518;2022-09-09T05:36:17;14.30;99.90
13694;DHT22;6919;52.344;14.518;2022-09-09T05:38:46;14.40;99.90
13694;DHT22;6919;52.344;14.518;2022-09-09T05:41:16;14.40;99.90
13694;DHT22;6919;52.344;14.518;2022-09-09T05:43:44;14.50;99.90
13694;DHT22;6919;52.344;14.518;2022-09-09T05:46:18;14.50;99.90
13694;DHT22;6919;52.344;14.518;2022-09-09T05:48:49;14.60;99.90
13694;DHT22;6919;52.344;14.518;2022-09-09T05:51:19;14.70;99.90
13694;DHT22;6919;52.344;14.518;2022-09-09T05:53:49;14.80;99.90
13694;DHT22;6919;52.344;14.518;2022-09-09T05:56:20;14.90;99.90
13694;DHT22;6919;52.344;14.518;2022-09-09T05:58:50;15.00;99.90
13694;DHT22;6919;52.344;14.518;2022-09-09T06:01:23;15.10;99.90
13694;DHT22;6919;52.344;14.518;2022-09-09T06:03:53;15.10;99.90
13694;DHT22;6919;52.344;14.518;2022-09-09T06:06:23;15.30;99.90
13694;DHT22;6919;52.344;14.518;2022-09-09T06:08:55;15.30;99.90
13694;DHT22;6919;52.344;14.518;2022-09-09T06:11:26;15.40;99.90
13694;DHT22;6919;52.344;14.518;2022-09-09T06:13:58;15.40;99.90
13694;DHT22;6919;52.344;14.518;2022-09-09T06:16:29;15.50;99.90
13694;DHT22;6919;52.344;14.518;2022-09-09T06:18:59;15.60;99.90
13694;DHT22;6919;52.344;14.518;2022-09-09T06:21:30;15.70;99.90
13694;DHT22;6919;52.344;14.518;2022-09-09T06:24:01;15.80;99.90
13694;DHT22;6919;52.344;14.518;2022-09-09T06:26:31;15.90;99.90
13694;DHT22;6919;52.344;14.518;2022-09-09T06:29:01;16.00;99.90
13694;DHT22;6919;52.344;14.518;2022-09-09T06:31:33;16.00;99.90
13694;DHT22;6919;52.344;14.518;2022-09-09T06:34:05;15.90;99.90
13694;DHT22;6919;52.344;14.518;2022-09-09T06:36:36;16.00;99.90
13694;DHT22;6919;52.344;14.518;2022-09-09T06:39:06;16.10;99.90
13694;DHT22;6919;52.344;14.518;2022-09-09T06:41:40;16.10;99.90
13694;DHT22;6919;52.344;14.518;2022-09-09T06:44:09;16.20;99.90
13694;DHT22;6919;52.344;14.518;2022-09-09T06:46:39;16.30;99.90
13694;DHT22;6919;52.344;14.518;2022-09-09T06:49:08;16.40;99.90
13694;DHT22;6919;52.344;14.518;2022-09-09T06:51:37;16.50;99.90
13694;DHT22;6919;52.344;14.518;2022-09-09T06:54:33;16.60;99.90
13694;DHT22;6919;52.344;14.518;2022-09-09T06:57:04;16.70;99.90
13694;DHT22;6919;52.344;14.518;2022-09-09T06:59:55;16.70;99.90
13694;DHT22;6919;52.344;14.518;2022-09-09T07:02:48;16.70;99.90
13694;DHT22;6919;52.344;14.518;2022-09-09T07:05:39;16.80;99.90
13694;DHT22;6919;52.344;14.518;2022-09-09T07:08:07;16.80;99.90
13694;DHT22;6919;52.344;14.518;2022-09-09T07:10:35;16.80;99.90
13694;DHT22;6919;52.344;14.518;2022-09-09T07:13:03;16.80;99.90
13694;DHT22;6919;52.344;14.518;2022-09-09T07:15:31;16.90;99.90
13694;DHT22;6919;52.344;14.518;2022-09-09T07:18:02;16.90;99.90
13694;DHT22;6919;52.344;14.518;2022-09-09T07:20:30;16.90;99.90
13694;DHT22;6919;52.344;14.518;2022-09-09T07:22:58;17.00;99.90
13694;DHT22;6919;52.344;14.518;2022-09-09T07:25:26;17.20;99.90
13694;DHT22;6919;52.344;14.518;2022-09-09T07:27:56;17.40;99.90
13694;DHT22;6919;52.344;14.518;2022-09-09T07:30:24;17.60;99.90
13694;DHT22;6919;52.344;14.518;2022-09-09T07:32:53;17.50;99.90
13694;DHT22;6919;52.344;14.518;2022-09-09T07:35:25;17.70;99.90
13694;DHT22;6919;52.344;14.518;2022-09-09T07:37:53;17.60;99.90
13694;DHT22;6919;52.344;14.518;2022-09-09T07:40:22;17.70;99.90
13694;DHT22;6919;52.344;14.518;2022-09-09T07:42:50;17.90;99.90
13694;DHT22;6919;52.344;14.518;2022-09-09T07:45:18;17.90;99.90
13694;DHT22;6919;52.344;14.518;2022-09-09T07:47:46;17.90;99.90
13694;DHT22;6919;52.344;14.518;2022-09-09T07:50:14;17.90;99.90
13694;DHT22;6919;52.344;14.518;2022-09-09T07:52:44;18.20;99.90
13694;DHT22;6919;52.344;14.518;2022-09-09T07:55:12;18.40;99.90
13694;DHT22;6919;52.344;14.518;2022-09-09T07:57:42;18.60;99.90
13694;DHT22;6919;52.344;14.518;2022-09-09T08:00:12;18.60;99.90
13694;DHT22;6919;52.344;14.518;2022-09-09T08:02:42;18.30;99.90
13694;DHT22;6919;52.344;14.518;2022-09-09T08:05:10;18.40;99.90
13694;DHT22;6919;52.344;14.518;2022-09-09T08:07:39;18.30;99.90
13694;DHT22;6919;52.344;14.518;2022-09-09T08:10:08;18.30;99.90
13694;DHT22;6919;52.344;14.518;2022-09-09T08:12:37;18.30;99.90
13694;DHT22;6919;52.344;14.518;2022-09-09T08:15:13;18.50;99.90
13694;DHT22;6919;52.344;14.518;2022-09-09T08:17:41;18.60;99.90
13694;DHT22;6919;52.344;14.518;2022-09-09T08:20:10;18.50;99.90
13694;DHT22;6919;52.344;14.518;2022-09-09T08:22:38;18.60;99.90
13694;DHT22;6919;52.344;14.518;2022-09-09T08:25:08;18.90;99.90
13694;DHT22;6919;52.344;14.518;2022-09-09T08:27:36;18.90;99.90
13694;DHT22;6919;52.344;14.518;2022-09-09T08:30:05;19.00;99.90
13694;DHT22;6919;52.344;14.518;2022-09-09T08:32:34;19.00;99.90
13694;DHT22;6919;52.344;14.518;2022-09-09T08:35:05;19.00;99.90
13694;DHT22;6919;52.344;14.518;2022-09-09T08:37:34;19.10;99.90
13694;DHT22;6919;52.344;14.518;2022-09-09T08:40:02;19.10;99.90
13694;DHT22;6919;52.344;14.518;2022-09-09T08:42:41;19.20;99.90
13694;DHT22;6919;52.344;14.518;2022-09-09T08:45:32;19.20;99.90
13694;DHT22;6919;52.344;14.518;2022-09-09T08:48:16;19.30;99.90
13694;DHT22;6919;52.344;14.518;2022-09-09T08:50:52;19.40;99.90
13694;DHT22;6919;52.344;14.518;2022-09-09T08:53:30;19.40;99.90
13694;DHT22;6919;52.344;14.518;2022-09-09T08:56:10;19.40;99.90
13694;DHT22;6919;52.344;14.518;2022-09-09T08:58:46;19.60;99.90
13694;DHT22;6919;52.344;14.518;2022-09-09T09:01:34;19.70;99.90
13694;DHT22;6919;52.344;14.518;2022-09-09T09:04:21;19.70;1.00
13694;DHT22;6919;52.344;14.518;2022-09-09T09:07:08;19.70;1.00
13694;DHT22;6919;52.344;14.518;2022-09-09T09:09:53;19.70;1.00
13694;DHT22;6919;52.344;14.518;2022-09-09T09:12:43;19.80;1.00
13694;DHT22;6919;52.344;14.518;2022-09-09T09:15:18;19.90;1.00
13694;DHT22;6919;52.344;14.518;2022-09-09T09:17:54;19.90;1.00
13694;DHT22;6919;52.344;14.518;2022-09-09T09:20:28;19.80;99.90
13694;DHT22;6919;52.344;14.518;2022-09-09T09:23:05;19.70;97.40
13694;DHT22;6919;52.344;14.518;2022-09-09T09:25:39;19.70;1.00
13694;DHT22;6919;52.344;14.518;2022-09-09T09:28:15;19.90;1.00
13694;DHT22;6919;52.344;14.518;2022-09-09T09:30:49;20.10;99.90
13694;DHT22;6919;52.344;14.518;2022-09-09T09:33:25;20.50;99.90
13694;DHT22;6919;52.344;14.518;2022-09-09T09:35:56;20.70;1.00
13694;DHT22;6919;52.344;14.518;2022-09-09T09:38:27;20.90;99.90
13694;DHT22;6919;52.344;14.518;2022-09-09T09:41:16;21.20;1.00
13694;DHT22;6919;52.344;14.518;2022-09-09T09:43:53;20.80;1.00
13694;DHT22;6919;52.344;14.518;2022-09-09T09:46:24;20.70;1.00
13694;DHT22;6919;52.344;14.518;2022-09-09T09:48:57;21.10;36.50
13694;DHT22;6919;52.344;14.518;2022-09-09T09:51:27;21.40;99.90
13694;DHT22;6919;52.344;14.518;2022-09-09T09:54:14;21.90;1.00
13694;DHT22;6919;52.344;14.518;2022-09-09T09:56:49;21.90;99.90
13694;DHT22;6919;52.344;14.518;2022-09-09T09:59:33;22.30;1.00
13694;DHT22;6919;52.344;14.518;2022-09-09T10:02:18;22.10;99.90
13694;DHT22;6919;52.344;14.518;2022-09-09T10:05:01;22.20;99.90
13694;DHT22;6919;52.344;14.518;2022-09-09T10:07:30;22.20;1.00
13694;DHT22;6919;52.344;14.518;2022-09-09T10:10:00;21.90;1.00
13694;DHT22;6919;52.344;14.518;2022-09-09T10:12:39;21.70;1.00
13694;DHT22;6919;52.344;14.518;2022-09-09T10:15:31;21.60;99.90
13694;DHT22;6919;52.344;14.518;2022-09-09T10:18:19;21.80;99.90
13694;DHT22;6919;52.344;14.518;2022-09-09T10:21:04;21.70;1.00
13694;DHT22;6919;52.344;14.518;2022-09-09T10:24:01;21.20;99.90
13694;DHT22;6919;52.344;14.518;2022-09-09T10:26:43;21.30;99.90
13694;DHT22;6919;52.344;14.518;2022-09-09T10:29:39;21.50;1.00
13694;DHT22;6919;52.344;14.518;2022-09-09T10:32:35;21.70;1.00
13694;DHT22;6919;52.344;14.518;2022-09-09T10:35:12;21.50;99.90
13694;DHT22;6919;52.344;14.518;2022-09-09T10:38:10;21.70;1.00
13694;DHT22;6919;52.344;14.518;2022-09-09T10:41:00;21.70;99.90
13694;DHT22;6919;52.344;14.518;2022-09-09T10:50:33;22.70;1.00
13694;DHT22;6919;52.344;14.518;2022-09-09T10:53:38;22.60;99.90
13694;DHT22;6919;52.344;14.518;2022-09-09T10:56:16;22.90;99.90
13694;DHT22;6919;52.344;14.518;2022-09-09T10:58:50;22.70;99.90
13694;DHT22;6919;52.344;14.518;2022-09-09T11:01:24;22.70;99.90
13694;DHT22;6919;52.344;14.518;2022-09-09T11:03:59;23.00;99.90
13694;DHT22;6919;52.344;14.518;2022-09-09T11:06:37;23.00;99.90
13694;DHT22;6919;52.344;14.518;2022-09-09T11:09:15;23.00;1.00
13694;DHT22;6919;52.344;14.518;2022-09-09T11:11:49;22.90;99.90
13694;DHT22;6919;52.344;14.518;2022-09-09T11:14:28;22.90;99.90
13694;DHT22;6919;52.344;14.518;2022-09-09T11:17:06;23.30;1.00
13694;DHT22;6919;52.344;14.518;2022-09-09T11:19:40;22.90;1.00
13694;DHT22;6919;52.344;14.518;2022-09-09T11:22:16;23.00;6.30
13694;DHT22;6919;52.344;14.518;2022-09-09T11:24:53;23.00;1.00
13694;DHT22;6919;52.344;14.518;2022-09-09T11:27:31;22.80;1.00
13694;DHT22;6919;52.344;14.518;2022-09-09T11:30:19;22.80;1.00
13694;DHT22;6919;52.344;14.518;2022-09-09T11:33:29;23.20;1.00
13694;DHT22;6919;52.344;14.518;2022-09-09T11:36:27;23.20;1.00
13694;DHT22;6919;52.344;14.518;2022-09-09T11:42:35;23.20;1.00
13694;DHT22;6919;52.344;14.518;2022-09-09T11:45:21;23.50;1.00
13694;DHT22;6919;52.344;14.518;2022-09-09T11:47:53;23.20;1.00
13694;DHT22;6919;52.344;14.518;2022-09-09T11:50:32;23.20;1.00
13694;DHT22;6919;52.344;14.518;2022-09-09T11:53:14;23.30;1.00
13694;DHT22;6919;52.344;14.518;2022-09-09T11:56:25;23.60;1.00
13694;DHT22;6919;52.344;14.518;2022-09-09T11:59:00;23.90;1.00
13694;DHT22;6919;52.344;14.518;2022-09-09T12:01:35;24.20;1.00
13694;DHT22;6919;52.344;14.518;2022-09-09T12:04:18;24.40;1.00
13694;DHT22;6919;52.344;14.518;2022-09-09T12:06:59;24.30;1.00
13694;DHT22;6919;52.344;14.518;2022-09-09T12:09:45;24.30;1.00
13694;DHT22;6919;52.344;14.518;2022-09-09T12:12:24;24.30;1.00
13694;DHT22;6919;52.344;14.518;2022-09-09T12:14:58;24.00;1.00
13694;DHT22;6919;52.344;14.518;2022-09-09T12:17:30;23.40;1.00
13694;DHT22;6919;52.344;14.518;2022-09-09T12:20:11;22.80;1.00
13694;DHT22;6919;52.344;14.518;2022-09-09T12:23:00;23.10;1.00
13694;DHT22;6919;52.344;14.518;2022-09-09T12:25:49;23.70;1.00
13694;DHT22;6919;52.344;14.518;2022-09-09T12:28:37;24.30;1.00
13694;DHT22;6919;52.344;14.518;2022-09-09T12:31:16;24.40;1.00
13694;DHT22;6919;52.344;14.518;2022-09-09T12:33:49;23.80;1.00
13694;DHT22;6919;52.344;14.518;2022-09-09T12:36:20;23.40;1.00
13694;DHT22;6919;52.344;14.518;2022-09-09T12:38:51;23.20;1.00
13694;DHT22;6919;52.344;14.518;2022-09-09T12:41:22;23.10;1.00
13694;DHT22;6919;52.344;14.518;2022-09-09T12:44:04;23.00;1.00
13694;DHT22;6919;52.344;14.518;2022-09-09T12:46:38;23.00;1.00
13694;DHT22;6919;52.344;14.518;2022-09-09T12:49:26;23.30;1.00
13694;DHT22;6919;52.344;14.518;2022-09-09T12:52:02;24.00;1.00
13694;DHT22;6919;52.344;14.518;2022-09-09T12:54:35;24.70;1.00
13694;DHT22;6919;52.344;14.518;2022-09-09T12:57:05;25.00;1.00
13694;DHT22;6919;52.344;14.518;2022-09-09T12:59:41;25.40;1.00
13694;DHT22;6919;52.344;14.518;2022-09-09T13:02:20;25.70;99.90
13694;DHT22;6919;52.344;14.518;2022-09-09T13:04:50;25.30;99.90
13694;DHT22;6919;52.344;14.518;2022-09-09T13:07:21;25.00;99.90
13694;DHT22;6919;52.344;14.518;2022-09-09T13:09:49;26.00;99.90
13694;DHT22;6919;52.344;14.518;2022-09-09T13:12:19;26.90;99.90
13694;DHT22;6919;52.344;14.518;2022-09-09T13:14:53;27.60;99.90
13694;DHT22;6919;52.344;14.518;2022-09-09T13:17:25;28.20;99.90
13694;DHT22;6919;52.344;14.518;2022-09-09T13:19:55;29.00;99.90
13694;DHT22;6919;52.344;14.518;2022-09-09T13:22:30;29.20;99.90
13694;DHT22;6919;52.344;14.518;2022-09-09T13:25:05;29.20;99.90
13694;DHT22;6919;52.344;14.518;2022-09-09T13:27:54;29.00;99.90
13694;DHT22;6919;52.344;14.518;2022-09-09T13:30:30;28.70;99.90
13694;DHT22;6919;52.344;14.518;2022-09-09T13:33:05;29.30;99.90
13694;DHT22;6919;52.344;14.518;2022-09-09T13:35:50;29.80;99.90
13694;DHT22;6919;52.344;14.518;2022-09-09T13:38:22;30.10;99.90
13694;DHT22;6919;52.344;14.518;2022-09-09T13:40:58;30.50;99.90
13694;DHT22;6919;52.344;14.518;2022-09-09T13:43:34;30.10;99.90
13694;DHT22;6919;52.344;14.518;2022-09-09T13:46:21;29.00;99.90
13694;DHT22;6919;52.344;14.518;2022-09-09T13:49:01;28.00;99.90
13694;DHT22;6919;52.344;14.518;2022-09-09T13:51:34;27.10;99.90
13694;DHT22;6919;52.344;14.518;2022-09-09T13:54:05;26.20;99.90
13694;DHT22;6919;52.344;14.518;2022-09-09T13:56:38;25.20;99.90
13694;DHT22;6919;52.344;14.518;2022-09-09T13:59:11;24.70;99.90
13694;DHT22;6919;52.344;14.518;2022-09-09T14:01:42;24.50;99.90
13694;DHT22;6919;52.344;14.518;2022-09-09T14:04:11;24.10;99.90
13694;DHT22;6919;52.344;14.518;2022-09-09T14:06:39;23.90;1.00
13694;DHT22;6919;52.344;14.518;2022-09-09T14:09:11;23.70;1.00
13694;DHT22;6919;52.344;14.518;2022-09-09T14:11:43;23.60;1.00
13694;DHT22;6919;52.344;14.518;2022-09-09T14:14:12;23.40;1.00
13694;DHT22;6919;52.344;14.518;2022-09-09T14:16:42;23.30;1.00
13694;DHT22;6919;52.344;14.518;2022-09-09T14:19:10;23.20;1.00
13694;DHT22;6919;52.344;14.518;2022-09-09T14:21:38;23.10;1.00
13694;DHT22;6919;52.344;14.518;2022-09-09T14:24:06;23.00;1.00
13694;DHT22;6919;52.344;14.518;2022-09-09T14:26:34;22.90;1.00
13694;DHT22;6919;52.344;14.518;2022-09-09T14:29:03;22.70;1.00
13694;DHT22;6919;52.344;14.518;2022-09-09T14:31:31;22.70;1.00
13694;DHT22;6919;52.344;14.518;2022-09-09T14:34:00;22.60;1.00
13694;DHT22;6919;52.344;14.518;2022-09-09T14:36:29;22.50;1.00
13694;DHT22;6919;52.344;14.518;2022-09-09T14:38:57;22.50;1.00
13694;DHT22;6919;52.344;14.518;2022-09-09T14:41:25;22.50;1.00
13694;DHT22;6919;52.344;14.518;2022-09-09T14:43:53;22.50;1.00
13694;DHT22;6919;52.344;14.518;2022-09-09T14:46:21;22.50;1.00
13694;DHT22;6919;52.344;14.518;2022-09-09T14:48:50;22.50;1.00
13694;DHT22;6919;52.344;14.518;2022-09-09T14:51:25;22.50;1.00
13694;DHT22;6919;52.344;14.518;2022-09-09T14:53:55;22.60;1.00
13694;DHT22;6919;52.344;14.518;2022-09-09T14:56:26;22.60;1.00
13694;DHT22;6919;52.344;14.518;2022-09-09T14:58:57;22.70;1.00
13694;DHT22;6919;52.344;14.518;2022-09-09T15:01:27;22.80;47.60
13694;DHT22;6919;52.344;14.518;2022-09-09T15:03:58;22.80;1.00
13694;DHT22;6919;52.344;14.518;2022-09-09T15:06:31;23.00;1.00
13694;DHT22;6919;52.344;14.518;2022-09-09T15:09:01;23.00;1.00
13694;DHT22;6919;52.344;14.518;2022-09-09T15:11:32;23.20;1.00
13694;DHT22;6919;52.344;14.518;2022-09-09T15:14:05;23.10;1.00
13694;DHT22;6919;52.344;14.518;2022-09-09T15:16:34;22.90;1.00
13694;DHT22;6919;52.344;14.518;2022-09-09T15:19:03;22.80;1.00
13694;DHT22;6919;52.344;14.518;2022-09-09T15:21:35;22.60;1.00
13694;DHT22;6919;52.344;14.518;2022-09-09T15:24:05;22.50;33.10
13694;DHT22;6919;52.344;14.518;2022-09-09T15:26:35;22.40;99.90
13694;DHT22;6919;52.344;14.518;2022-09-09T15:29:06;22.30;99.90
13694;DHT22;6919;52.344;14.518;2022-09-09T15:31:35;22.20;99.90
13694;DHT22;6919;52.344;14.518;2022-09-09T15:34:05;22.20;99.90
13694;DHT22;6919;52.344;14.518;2022-09-09T15:36:37;22.30;99.90
13694;DHT22;6919;52.344;14.518;2022-09-09T15:39:08;22.40;99.90
13694;DHT22;6919;52.344;14.518;2022-09-09T15:41:39;22.50;99.90
13694;DHT22;6919;52.344;14.518;2022-09-09T15:44:09;22.50;99.90
13694;DHT22;6919;52.344;14.518;2022-09-09T15:46:40;22.70;99.90
13694;DHT22;6919;52.344;14.518;2022-09-09T15:49:11;22.70;58.90
13694;DHT22;6919;52.344;14.518;2022-09-09T15:51:44;22.60;99.90
13694;DHT22;6919;52.344;14.518;2022-09-09T15:54:15;22.30;1.00
13694;DHT22;6919;52.344;14.518;2022-09-09T15:56:45;22.20;1.00
13694;DHT22;6919;52.344;14.518;2022-09-09T15:59:15;21.90;1.00
13694;DHT22;6919;52.344;14.518;2022-09-09T16:01:43;21.60;1.00
13694;DHT22;6919;52.344;14.518;2022-09-09T16:04:12;21.20;65.40
13694;DHT22;6919;52.344;14.518;2022-09-09T16:06:43;21.00;1.00
13694;DHT22;6919;52.344;14.518;2022-09-09T16:09:11;20.90;1.00
13694;DHT22;6919;52.344;14.518;2022-09-09T16:11:39;20.90;1.00
13694;DHT22;6919;52.344;14.518;2022-09-09T16:14:08;21.00;1.00
13694;DHT22;6919;52.344;14.518;2022-09-09T16:16:37;20.80;1.00
13694;DHT22;6919;52.344;14.518;2022-09-09T16:19:07;20.70;99.90
13694;DHT22;6919;52.344;14.518;2022-09-09T16:21:39;20.70;99.90
13694;DHT22;6919;52.344;14.518;2022-09-09T16:24:11;20.60;1.00
13694;DHT22;6919;52.344;14.518;2022-09-09T16:26:43;20.50;1.00
13694;DHT22;6919;52.344;14.518;2022-09-09T16:29:14;20.40;1.00
13694;DHT22;6919;52.344;14.518;2022-09-09T16:31:44;20.30;99.90